createdAt,value
2023-01-29T00:03:45.859Z,100887.48
2023-01-29T00:08:48.619Z,100878.64
2023-01-29T00:13:52.545Z,100876.98
2023-01-29T00:18:55.327Z,100870.73
2023-01-29T00:23:58.740Z,100859.27
2023-01-29T00:29:02.218Z,100855.64
2023-01-29T00:34:05.100Z,100856.98
2023-01-29T00:39:10.801Z,100859.19
2023-01-29T00:44:32.505Z,100857.25
2023-01-29T00:49:35.237Z,100857.34
2023-01-29T00:54:38.037Z,100856.23
2023-01-29T00:59:40.894Z,100858.09
2023-01-29T01:04:43.644Z,100862.32
2023-01-29T01:10:05.212Z,100857.73
2023-01-29T01:15:09.076Z,100851.70
2023-01-29T01:20:13.560Z,100844.48
2023-01-29T01:25:17.657Z,100837.43
2023-01-29T01:30:20.548Z,100833.86
2023-01-29T01:35:23.301Z,100836.34
2023-01-29T01:40:26.720Z,100847.27
2023-01-29T01:45:35.441Z,100847.33
2023-01-29T01:51:00.811Z,100848.54
2023-01-29T01:56:07.973Z,100847.64
2023-01-29T02:01:12.464Z,100844.80
2023-01-29T02:06:34.135Z,100831.92
2023-01-29T02:11:38.460Z,100818.09
2023-01-29T02:16:41.224Z,100817.02
2023-01-29T02:21:43.897Z,100803.55
2023-01-29T02:27:08.414Z,100790.08
2023-01-29T02:32:17.388Z,100785.64
2023-01-29T02:37:27.327Z,100776.15
2023-01-29T02:42:44.613Z,100765.29
2023-01-29T02:48:00.660Z,100761.87
2023-01-29T02:53:27.494Z,100766.10
2023-01-29T02:58:41.580Z,100765.42
2023-01-29T03:03:50.836Z,100763.75
2023-01-29T03:08:59.161Z,100750.13
2023-01-29T03:14:20.954Z,100753.31
2023-01-29T03:19:36.341Z,100756.66
2023-01-29T03:25:06.869Z,100745.71
2023-01-29T03:30:31.642Z,100744.86
2023-01-29T03:35:39.682Z,100743.13
2023-01-29T03:41:32.181Z,100738.16
2023-01-29T03:46:57.705Z,100730.66
2023-01-29T03:52:09.720Z,100733.34
2023-01-29T03:57:36.428Z,100734.16
2023-01-29T04:02:47.369Z,100734.14
2023-01-29T04:07:57.741Z,100726.07
2023-01-29T04:13:06.536Z,100711.09
2023-01-29T04:18:10.694Z,100698.15
2023-01-29T04:23:25.408Z,100693.67
2023-01-29T04:28:53.976Z,100689.63
2023-01-29T04:34:25.759Z,100680.39
2023-01-29T04:39:48.261Z,100680.55
2023-01-29T04:45:03.707Z,100669.45
2023-01-29T04:50:28.880Z,100662.47
2023-01-29T04:55:36.157Z,100668.46
2023-01-29T05:00:44.778Z,100664.88
2023-01-29T05:05:51.054Z,100661.30
2023-01-29T05:10:56.010Z,100658.05
2023-01-29T05:16:20.848Z,100665.23
2023-01-29T05:21:24.903Z,100664.48
2023-01-29T05:26:46.670Z,100650.80
2023-01-29T05:31:49.456Z,100651.02
2023-01-29T05:36:52.334Z,100649.70
2023-01-29T05:41:55.089Z,100661.11
2023-01-29T05:46:57.901Z,100667.44
2023-01-29T05:52:00.702Z,100661.34
2023-01-29T05:57:03.638Z,100641.23
2023-01-29T06:02:06.533Z,100640.58
2023-01-29T06:07:09.374Z,100642.02
2023-01-29T06:12:13.160Z,100628.39
2023-01-29T06:17:16.043Z,100632.73
2023-01-29T06:22:18.783Z,100641.95
2023-01-29T06:27:21.595Z,100635.55
2023-01-29T06:32:24.390Z,100639.21
2023-01-29T06:37:27.215Z,100642.67
2023-01-29T06:42:30.011Z,100640.13
2023-01-29T06:47:32.800Z,100633.42
2023-01-29T06:52:35.594Z,100635.45
2023-01-29T06:57:38.337Z,100632.69
2023-01-29T07:02:41.079Z,100622.98
2023-01-29T07:07:43.910Z,100627.45
2023-01-29T07:12:46.818Z,100626.52
2023-01-29T07:17:56.794Z,100626.11
2023-01-29T07:22:59.572Z,100631.77
2023-01-29T07:28:02.808Z,100641.02
2023-01-29T07:33:08.479Z,100641.59
2023-01-29T07:38:11.937Z,100630.95
2023-01-29T07:43:16.719Z,100614.33
2023-01-29T07:48:19.978Z,100600.78
2023-01-29T07:53:23.156Z,100592.66
2023-01-29T07:58:25.971Z,100591.37
2023-01-29T08:03:28.712Z,100585.46
2023-01-29T08:08:31.691Z,100579.75
2023-01-29T08:13:34.494Z,100575.90
2023-01-29T08:18:38.623Z,100574.26
2023-01-29T08:23:41.494Z,100578.76
2023-01-29T08:28:44.289Z,100570.09
2023-01-29T08:33:47.150Z,100562.25
2023-01-29T08:38:50.611Z,100551.42
2023-01-29T08:43:53.445Z,100550.80
2023-01-29T08:48:59.454Z,100541.80
2023-01-29T08:54:02.270Z,100539.75
2023-01-29T08:59:05.273Z,100535.77
2023-01-29T09:04:08.130Z,100541.48
2023-01-29T09:09:12.054Z,100539.04
2023-01-29T09:14:19.583Z,100545.51
2023-01-29T09:19:22.579Z,100542.99
2023-01-29T09:24:25.705Z,100549.52
2023-01-29T09:29:28.530Z,100555.06
2023-01-29T09:34:31.485Z,100540.36
2023-01-29T09:39:34.316Z,100533.56
2023-01-29T09:45:04.878Z,100534.11
2023-01-29T09:50:28.786Z,100526.36
2023-01-29T09:55:46.559Z,100525.32
2023-01-29T10:00:49.463Z,100519.45
2023-01-29T10:06:07.544Z,100516.93
2023-01-29T10:11:19.307Z,100508.28
2023-01-29T10:16:48.469Z,100495.83
2023-01-29T10:22:05.721Z,100490.21
2023-01-29T10:27:19.438Z,100489.89
2023-01-29T10:32:25.805Z,100479.35
2023-01-29T10:37:41.704Z,100474.14
2023-01-29T10:42:53.122Z,100463.42
2023-01-29T10:48:26.310Z,100452.45
2023-01-29T10:53:53.613Z,100440.96
2023-01-29T10:59:07.193Z,100440.11
2023-01-29T11:04:12.875Z,100433.19
2023-01-29T11:09:37.499Z,100423.92
2023-01-29T11:14:54.319Z,100423.88
2023-01-29T11:19:57.277Z,100414.83
2023-01-29T11:25:16.661Z,100399.86
2023-01-29T11:30:41.548Z,100397.71
2023-01-29T11:35:44.876Z,100392.61
2023-01-29T11:40:48.118Z,100379.11
2023-01-29T11:45:59.036Z,100383.27
2023-01-29T11:51:05.603Z,100385.25
2023-01-29T11:56:29.690Z,100369.56
2023-01-29T12:01:42.909Z,100370.55
2023-01-29T12:07:12.190Z,100363.14
2023-01-29T12:12:42.252Z,100349.20
2023-01-29T12:17:54.110Z,100344.98
2023-01-29T12:23:05.102Z,100345.90
2023-01-29T12:28:41.495Z,100333.48
2023-01-29T12:33:57.317Z,100333.69
2023-01-29T12:39:00.719Z,100326.32
2023-01-29T12:44:26.066Z,100336.66
2023-01-29T12:49:36.521Z,100326.54
2023-01-29T12:55:00.219Z,100340.45
2023-01-29T13:00:27.846Z,100358.32
2023-01-29T13:05:47.377Z,100352.93
2023-01-29T13:10:54.032Z,100339.54
2023-01-29T13:16:00.087Z,100319.79
2023-01-29T13:21:05.260Z,100313.73
2023-01-29T13:26:08.167Z,100302.13
2023-01-29T13:31:22.716Z,100294.60
2023-01-29T13:36:29.951Z,100294.23
2023-01-29T13:41:38.844Z,100292.50
2023-01-29T13:46:42.321Z,100291.23
2023-01-29T13:51:45.123Z,100285.02
2023-01-29T13:56:53.983Z,100286.02
2023-01-29T14:02:05.587Z,100283.26
2023-01-29T14:07:50.011Z,100284.24
2023-01-29T14:12:55.679Z,100278.44
2023-01-29T14:18:10.936Z,100281.50
2023-01-29T14:23:21.750Z,100276.66
2023-01-29T14:28:29.445Z,100276.98
2023-01-29T14:33:37.167Z,100276.09
2023-01-29T14:38:48.685Z,100271.42
2023-01-29T14:43:51.595Z,100266.23
2023-01-29T14:48:54.532Z,100266.20
2023-01-29T14:54:16.672Z,100267.04
2023-01-29T14:59:30.608Z,100281.23
2023-01-29T15:04:51.090Z,100286.88
2023-01-29T15:10:32.729Z,100281.91
2023-01-29T15:15:54.387Z,100276.70
2023-01-29T15:21:05.822Z,100278.73
2023-01-29T15:26:16.186Z,100278.05
2023-01-29T15:31:20.448Z,100261.91
2023-01-29T15:36:28.356Z,100246.48
2023-01-29T15:41:32.123Z,100236.88
2023-01-29T15:46:39.423Z,100231.41
2023-01-29T15:51:42.524Z,100232.14
2023-01-29T15:56:50.470Z,100226.65
2023-01-29T16:01:54.434Z,100229.23
2023-01-29T16:07:04.728Z,100227.37
2023-01-29T16:12:08.096Z,100223.60
2023-01-29T16:17:23.589Z,100216.59
2023-01-29T16:22:31.495Z,100209.73
2023-01-29T16:27:35.181Z,100193.79
2023-01-29T16:32:38.080Z,100180.09
2023-01-29T16:37:44.764Z,100176.30
2023-01-29T16:42:47.583Z,100168.92
2023-01-29T16:48:01.892Z,100165.16
2023-01-29T16:53:19.981Z,100160.02
2023-01-29T16:58:28.001Z,100163.80
2023-01-29T17:03:33.868Z,100161.38
2023-01-29T17:08:37.849Z,100164.79
2023-01-29T17:13:45.153Z,100172.70
2023-01-29T17:18:48.069Z,100167.89
2023-01-29T17:23:54.036Z,100169.77
2023-01-29T17:28:57.135Z,100167.70
2023-01-29T17:34:00.122Z,100167.90
2023-01-29T17:39:17.649Z,100165.81
2023-01-29T17:44:28.248Z,100161.89
2023-01-29T17:49:35.966Z,100150.23
2023-01-29T17:54:38.784Z,100134.77
2023-01-29T17:59:41.627Z,100123.41
2023-01-29T18:04:51.123Z,100115.31
2023-01-29T18:09:54.167Z,100111.83
2023-01-29T18:14:57.311Z,100102.73
2023-01-29T18:20:00.238Z,100102.87
2023-01-29T18:25:03.451Z,100092.95
2023-01-29T18:30:07.454Z,100088.52
2023-01-29T18:35:11.226Z,100073.46
2023-01-29T18:40:17.480Z,100064.41
2023-01-29T18:45:21.031Z,100060.09
2023-01-29T18:50:26.741Z,100046.70
2023-01-29T18:55:31.209Z,100036.40
2023-01-29T19:00:39.454Z,100026.63
2023-01-29T19:05:42.367Z,100009.65
2023-01-29T19:10:45.199Z,99990.98
2023-01-29T19:15:50.659Z,99986.18
2023-01-29T19:20:54.492Z,99982.61
2023-01-29T19:25:59.748Z,99977.81
2023-01-29T19:31:04.360Z,99976.29
2023-01-29T19:36:07.697Z,99978.02
2023-01-29T19:41:11.154Z,99971.69
2023-01-29T19:46:14.820Z,99962.73
2023-01-29T19:51:17.689Z,99953.96
2023-01-29T19:56:21.501Z,99947.45
2023-01-29T20:01:25.101Z,99943.00
2023-01-29T20:06:31.216Z,99946.29
2023-01-29T20:11:34.175Z,99928.27
2023-01-29T20:16:37.479Z,99915.55
2023-01-29T20:21:41.213Z,99915.19
2023-01-29T20:26:44.774Z,99912.09
2023-01-29T20:31:47.894Z,99907.95
2023-01-29T20:36:50.767Z,99904.19
2023-01-29T20:41:55.220Z,99895.29
2023-01-29T20:47:01.836Z,99879.34
2023-01-29T20:52:06.860Z,99864.95
2023-01-29T20:57:09.644Z,99847.13
2023-01-29T21:02:12.572Z,99840.82
2023-01-29T21:07:15.760Z,99823.00
2023-01-29T21:12:18.917Z,99808.41
2023-01-29T21:17:21.753Z,99802.94
2023-01-29T21:22:25.763Z,99792.98
2023-01-29T21:27:28.520Z,99786.13
2023-01-29T21:32:31.434Z,99783.05
2023-01-29T21:37:39.206Z,99777.41
2023-01-29T21:43:00.779Z,99776.41
2023-01-29T21:48:04.331Z,99770.60
2023-01-29T21:53:07.164Z,99757.05
2023-01-29T21:58:10.311Z,99743.36
2023-01-29T22:03:13.140Z,99735.30
2023-01-29T22:08:27.354Z,99729.11
2023-01-29T22:13:30.562Z,99719.67
2023-01-29T22:18:34.190Z,99706.13
2023-01-29T22:23:37.039Z,99704.57
2023-01-29T22:28:40.304Z,99696.34
2023-01-29T22:33:43.457Z,99685.36
2023-01-29T22:38:46.917Z,99673.89
2023-01-29T22:43:49.689Z,99665.64
2023-01-29T22:48:52.480Z,99660.52
2023-01-29T22:53:56.617Z,99652.11
2023-01-29T22:59:00.899Z,99639.41
2023-01-29T23:04:04.148Z,99627.41
2023-01-29T23:09:07.057Z,99618.67
2023-01-29T23:14:09.982Z,99607.34
2023-01-29T23:19:12.818Z,99593.44
2023-01-29T23:24:15.723Z,99577.33
2023-01-29T23:29:18.552Z,99565.14
2023-01-29T23:34:22.503Z,99550.05
2023-01-29T23:39:25.283Z,99537.36
2023-01-29T23:44:28.910Z,99526.90
2023-01-29T23:49:32.064Z,99509.23
2023-01-29T23:54:34.808Z,99493.80
2023-01-29T23:59:37.624Z,99481.80
